sensor_id;sensor_type;location;lat;lon;timestamp;P1;durP1;ratioP1;P2;durP2;ratioP2
7377;SDS011;3730;50.856;12.776;2023-04-03T00:02:06;4.17;;;1.90;;
7377;SDS011;3730;50.856;12.776;2023-04-03T00:04:32;6.77;;;2.03;;
7377;SDS011;3730;50.856;12.776;2023-04-03T00:06:58;5.80;;;2.10;;
7377;SDS011;3730;50.856;12.776;2023-04-03T00:09:23;6.73;;;1.90;;
7377;SDS011;3730;50.856;12.776;2023-04-03T00:11:49;6.80;;;2.07;;
7377;SDS011;3730;50.856;12.776;2023-04-03T00:14:15;3.90;;;1.80;;
7377;SDS011;3730;50.856;12.776;2023-04-03T00:16:40;4.57;;;1.90;;
7377;SDS011;3730;50.856;12.776;2023-04-03T00:19:06;5.80;;;1.90;;
7377;SDS011;3730;50.856;12.776;2023-04-03T00:21:32;5.00;;;2.00;;
7377;SDS011;3730;50.856;12.776;2023-04-03T00:23:57;3.97;;;2.13;;
7377;SDS011;3730;50.856;12.776;2023-04-03T00:26:23;5.03;;;1.70;;
7377;SDS011;3730;50.856;12.776;2023-04-03T00:28:48;4.17;;;1.90;;
7377;SDS011;3730;50.856;12.776;2023-04-03T00:31:15;2.20;;;1.63;;
7377;SDS011;3730;50.856;12.776;2023-04-03T00:33:41;4.43;;;1.97;;
7377;SDS011;3730;50.856;12.776;2023-04-03T00:36:08;3.30;;;1.67;;
7377;SDS011;3730;50.856;12.776;2023-04-03T00:38:34;3.77;;;1.60;;
7377;SDS011;3730;50.856;12.776;2023-04-03T00:41:00;3.83;;;1.80;;
7377;SDS011;3730;50.856;12.776;2023-04-03T00:43:26;7.07;;;2.10;;
7377;SDS011;3730;50.856;12.776;2023-04-03T00:45:53;6.63;;;2.20;;
7377;SDS011;3730;50.856;12.776;2023-04-03T00:51:12;3.70;;;2.07;;
7377;SDS011;3730;50.856;12.776;2023-04-03T00:53:43;4.50;;;1.90;;
7377;SDS011;3730;50.856;12.776;2023-04-03T00:56:12;2.70;;;1.93;;
7377;SDS011;3730;50.856;12.776;2023-04-03T00:58:44;5.90;;;2.33;;
7377;SDS011;3730;50.856;12.776;2023-04-03T01:01:16;6.60;;;2.10;;
7377;SDS011;3730;50.856;12.776;2023-04-03T01:03:47;5.23;;;2.10;;
7377;SDS011;3730;50.856;12.776;2023-04-03T01:06:14;5.50;;;2.23;;
7377;SDS011;3730;50.856;12.776;2023-04-03T01:08:41;5.13;;;1.60;;
7377;SDS011;3730;50.856;12.776;2023-04-03T01:11:08;3.83;;;1.97;;
7377;SDS011;3730;50.856;12.776;2023-04-03T01:13:33;2.03;;;1.83;;
7377;SDS011;3730;50.856;12.776;2023-04-03T01:16:03;3.77;;;1.93;;
7377;SDS011;3730;50.856;12.776;2023-04-03T01:18:30;3.03;;;1.57;;
7377;SDS011;3730;50.856;12.776;2023-04-03T01:21:07;4.47;;;1.77;;
7377;SDS011;3730;50.856;12.776;2023-04-03T01:24:05;4.37;;;1.70;;
7377;SDS011;3730;50.856;12.776;2023-04-03T01:26:44;5.40;;;1.87;;
7377;SDS011;3730;50.856;12.776;2023-04-03T01:29:10;2.77;;;1.83;;
7377;SDS011;3730;50.856;12.776;2023-04-03T01:34:17;4.87;;;1.90;;
7377;SDS011;3730;50.856;12.776;2023-04-03T01:36:42;4.27;;;1.70;;
7377;SDS011;3730;50.856;12.776;2023-04-03T01:39:08;5.30;;;2.03;;
7377;SDS011;3730;50.856;12.776;2023-04-03T01:41:34;3.50;;;1.60;;
7377;SDS011;3730;50.856;12.776;2023-04-03T01:44:00;2.93;;;1.67;;
7377;SDS011;3730;50.856;12.776;2023-04-03T01:46:26;2.77;;;1.60;;
7377;SDS011;3730;50.856;12.776;2023-04-03T01:48:51;3.93;;;1.70;;
7377;SDS011;3730;50.856;12.776;2023-04-03T01:51:17;2.90;;;1.63;;
7377;SDS011;3730;50.856;12.776;2023-04-03T01:53:43;3.60;;;1.80;;
7377;SDS011;3730;50.856;12.776;2023-04-03T01:56:08;7.97;;;2.00;;
7377;SDS011;3730;50.856;12.776;2023-04-03T01:58:34;5.03;;;1.80;;
7377;SDS011;3730;50.856;12.776;2023-04-03T02:01:00;3.93;;;1.80;;
7377;SDS011;3730;50.856;12.776;2023-04-03T02:03:26;5.37;;;2.30;;
7377;SDS011;3730;50.856;12.776;2023-04-03T02:05:52;5.03;;;1.93;;
7377;SDS011;3730;50.856;12.776;2023-04-03T02:08:17;4.07;;;1.97;;
7377;SDS011;3730;50.856;12.776;2023-04-03T02:10:47;4.87;;;1.70;;
7377;SDS011;3730;50.856;12.776;2023-04-03T02:13:14;4.00;;;2.07;;
7377;SDS011;3730;50.856;12.776;2023-04-03T02:15:40;2.57;;;1.60;;
7377;SDS011;3730;50.856;12.776;2023-04-03T02:18:06;3.53;;;1.70;;
7377;SDS011;3730;50.856;12.776;2023-04-03T02:20:32;5.93;;;1.70;;
7377;SDS011;3730;50.856;12.776;2023-04-03T02:22:58;3.67;;;2.10;;
7377;SDS011;3730;50.856;12.776;2023-04-03T02:25:24;9.63;;;1.90;;
7377;SDS011;3730;50.856;12.776;2023-04-03T02:27:50;8.73;;;2.60;;
7377;SDS011;3730;50.856;12.776;2023-04-03T02:30:15;6.57;;;2.27;;
7377;SDS011;3730;50.856;12.776;2023-04-03T02:32:42;5.30;;;2.03;;
7377;SDS011;3730;50.856;12.776;2023-04-03T02:35:08;4.37;;;1.93;;
7377;SDS011;3730;50.856;12.776;2023-04-03T02:37:35;3.33;;;2.10;;
7377;SDS011;3730;50.856;12.776;2023-04-03T02:40:01;4.67;;;2.30;;
7377;SDS011;3730;50.856;12.776;2023-04-03T02:42:27;5.87;;;2.53;;
7377;SDS011;3730;50.856;12.776;2023-04-03T02:44:53;6.93;;;2.17;;
7377;SDS011;3730;50.856;12.776;2023-04-03T02:47:20;8.00;;;2.20;;
7377;SDS011;3730;50.856;12.776;2023-04-03T02:49:46;5.83;;;2.20;;
7377;SDS011;3730;50.856;12.776;2023-04-03T02:52:12;6.33;;;2.20;;
7377;SDS011;3730;50.856;12.776;2023-04-03T02:54:39;4.83;;;1.90;;
7377;SDS011;3730;50.856;12.776;2023-04-03T02:57:05;4.83;;;2.00;;
7377;SDS011;3730;50.856;12.776;2023-04-03T02:59:33;4.47;;;1.80;;
7377;SDS011;3730;50.856;12.776;2023-04-03T03:01:59;4.60;;;1.93;;
7377;SDS011;3730;50.856;12.776;2023-04-03T03:04:25;5.00;;;2.10;;
7377;SDS011;3730;50.856;12.776;2023-04-03T03:06:51;3.80;;;1.90;;
7377;SDS011;3730;50.856;12.776;2023-04-03T03:09:17;2.73;;;1.80;;
7377;SDS011;3730;50.856;12.776;2023-04-03T03:11:43;5.77;;;2.00;;
7377;SDS011;3730;50.856;12.776;2023-04-03T03:14:09;5.67;;;2.40;;
7377;SDS011;3730;50.856;12.776;2023-04-03T03:16:35;6.70;;;2.53;;
7377;SDS011;3730;50.856;12.776;2023-04-03T03:19:00;4.80;;;2.00;;
7377;SDS011;3730;50.856;12.776;2023-04-03T03:21:26;3.87;;;2.00;;
7377;SDS011;3730;50.856;12.776;2023-04-03T03:23:52;5.33;;;2.00;;
7377;SDS011;3730;50.856;12.776;2023-04-03T03:26:18;4.83;;;2.07;;
7377;SDS011;3730;50.856;12.776;2023-04-03T03:28:44;3.97;;;2.20;;
7377;SDS011;3730;50.856;12.776;2023-04-03T03:31:11;6.30;;;2.67;;
7377;SDS011;3730;50.856;12.776;2023-04-03T03:33:37;4.63;;;2.20;;
7377;SDS011;3730;50.856;12.776;2023-04-03T03:36:03;5.90;;;2.40;;
7377;SDS011;3730;50.856;12.776;2023-04-03T03:38:29;6.47;;;2.50;;
7377;SDS011;3730;50.856;12.776;2023-04-03T03:40:55;7.37;;;2.10;;
7377;SDS011;3730;50.856;12.776;2023-04-03T03:43:21;5.30;;;2.43;;
7377;SDS011;3730;50.856;12.776;2023-04-03T03:45:51;7.77;;;2.37;;
7377;SDS011;3730;50.856;12.776;2023-04-03T03:48:17;6.90;;;2.23;;
7377;SDS011;3730;50.856;12.776;2023-04-03T03:50:43;8.23;;;2.20;;
7377;SDS011;3730;50.856;12.776;2023-04-03T03:53:09;5.97;;;2.57;;
7377;SDS011;3730;50.856;12.776;2023-04-03T03:55:35;4.47;;;2.30;;
7377;SDS011;3730;50.856;12.776;2023-04-03T03:58:01;6.33;;;2.23;;
7377;SDS011;3730;50.856;12.776;2023-04-03T04:00:28;7.57;;;2.00;;
7377;SDS011;3730;50.856;12.776;2023-04-03T04:02:55;5.37;;;2.10;;
7377;SDS011;3730;50.856;12.776;2023-04-03T04:05:21;7.67;;;2.50;;
7377;SDS011;3730;50.856;12.776;2023-04-03T04:07:47;6.33;;;2.37;;
7377;SDS011;3730;50.856;12.776;2023-04-03T04:10:13;4.67;;;2.17;;
7377;SDS011;3730;50.856;12.776;2023-04-03T04:12:39;5.33;;;2.60;;
7377;SDS011;3730;50.856;12.776;2023-04-03T04:15:05;9.70;;;2.53;;
7377;SDS011;3730;50.856;12.776;2023-04-03T04:17:32;11.13;;;2.87;;
7377;SDS011;3730;50.856;12.776;2023-04-03T04:19:59;8.57;;;3.57;;
7377;SDS011;3730;50.856;12.776;2023-04-03T04:22:25;6.03;;;2.10;;
7377;SDS011;3730;50.856;12.776;2023-04-03T04:24:51;6.17;;;2.37;;
7377;SDS011;3730;50.856;12.776;2023-04-03T04:27:17;4.67;;;2.20;;
7377;SDS011;3730;50.856;12.776;2023-04-03T04:29:43;6.30;;;2.43;;
7377;SDS011;3730;50.856;12.776;2023-04-03T04:32:09;4.97;;;2.40;;
7377;SDS011;3730;50.856;12.776;2023-04-03T04:34:35;5.70;;;2.40;;
7377;SDS011;3730;50.856;12.776;2023-04-03T04:37:01;5.07;;;2.33;;
7377;SDS011;3730;50.856;12.776;2023-04-03T04:39:27;6.97;;;2.73;;
7377;SDS011;3730;50.856;12.776;2023-04-03T04:41:53;4.37;;;2.30;;
7377;SDS011;3730;50.856;12.776;2023-04-03T04:44:19;7.63;;;2.40;;
7377;SDS011;3730;50.856;12.776;2023-04-03T04:46:45;8.77;;;2.33;;
7377;SDS011;3730;50.856;12.776;2023-04-03T04:49:11;3.97;;;2.40;;
7377;SDS011;3730;50.856;12.776;2023-04-03T04:51:37;8.03;;;2.90;;
7377;SDS011;3730;50.856;12.776;2023-04-03T04:54:03;4.53;;;2.17;;
7377;SDS011;3730;50.856;12.776;2023-04-03T04:56:29;6.90;;;2.37;;
7377;SDS011;3730;50.856;12.776;2023-04-03T04:58:55;9.03;;;2.70;;
7377;SDS011;3730;50.856;12.776;2023-04-03T05:01:21;5.47;;;2.30;;
7377;SDS011;3730;50.856;12.776;2023-04-03T05:03:47;5.60;;;2.20;;
7377;SDS011;3730;50.856;12.776;2023-04-03T05:06:13;8.13;;;2.50;;
7377;SDS011;3730;50.856;12.776;2023-04-03T05:08:39;8.30;;;3.00;;
7377;SDS011;3730;50.856;12.776;2023-04-03T05:11:05;6.27;;;2.93;;
7377;SDS011;3730;50.856;12.776;2023-04-03T05:13:31;3.23;;;2.47;;
7377;SDS011;3730;50.856;12.776;2023-04-03T05:15:57;7.43;;;2.80;;
7377;SDS011;3730;50.856;12.776;2023-04-03T05:18:24;3.90;;;2.60;;
7377;SDS011;3730;50.856;12.776;2023-04-03T05:20:50;4.80;;;2.50;;
7377;SDS011;3730;50.856;12.776;2023-04-03T05:23:16;9.20;;;2.70;;
7377;SDS011;3730;50.856;12.776;2023-04-03T05:25:43;7.57;;;2.67;;
7377;SDS011;3730;50.856;12.776;2023-04-03T05:28:10;4.93;;;2.60;;
7377;SDS011;3730;50.856;12.776;2023-04-03T05:30:36;7.03;;;2.30;;
7377;SDS011;3730;50.856;12.776;2023-04-03T05:33:02;9.20;;;2.93;;
7377;SDS011;3730;50.856;12.776;2023-04-03T05:35:28;5.73;;;2.73;;
7377;SDS011;3730;50.856;12.776;2023-04-03T05:37:54;8.57;;;2.80;;
7377;SDS011;3730;50.856;12.776;2023-04-03T05:40:20;9.87;;;3.43;;
7377;SDS011;3730;50.856;12.776;2023-04-03T05:42:46;6.80;;;2.77;;
7377;SDS011;3730;50.856;12.776;2023-04-03T05:45:12;10.13;;;2.23;;
7377;SDS011;3730;50.856;12.776;2023-04-03T05:47:38;4.73;;;2.60;;
7377;SDS011;3730;50.856;12.776;2023-04-03T05:50:04;7.90;;;3.40;;
7377;SDS011;3730;50.856;12.776;2023-04-03T05:52:35;6.27;;;2.40;;
7377;SDS011;3730;50.856;12.776;2023-04-03T05:55:02;10.13;;;2.43;;
7377;SDS011;3730;50.856;12.776;2023-04-03T05:57:28;3.50;;;2.23;;
7377;SDS011;3730;50.856;12.776;2023-04-03T05:59:54;5.33;;;2.47;;
7377;SDS011;3730;50.856;12.776;2023-04-03T06:02:21;7.27;;;2.43;;
7377;SDS011;3730;50.856;12.776;2023-04-03T06:04:47;6.33;;;2.47;;
7377;SDS011;3730;50.856;12.776;2023-04-03T06:07:17;12.07;;;2.97;;
7377;SDS011;3730;50.856;12.776;2023-04-03T06:09:57;7.40;;;2.73;;
7377;SDS011;3730;50.856;12.776;2023-04-03T06:12:23;7.23;;;2.60;;
7377;SDS011;3730;50.856;12.776;2023-04-03T06:14:49;4.83;;;2.30;;
7377;SDS011;3730;50.856;12.776;2023-04-03T06:17:16;3.90;;;2.20;;
7377;SDS011;3730;50.856;12.776;2023-04-03T06:19:43;6.27;;;2.20;;
7377;SDS011;3730;50.856;12.776;2023-04-03T06:22:09;5.73;;;2.73;;
7377;SDS011;3730;50.856;12.776;2023-04-03T06:24:36;6.97;;;2.47;;
7377;SDS011;3730;50.856;12.776;2023-04-03T06:27:02;6.27;;;2.37;;
7377;SDS011;3730;50.856;12.776;2023-04-03T06:29:28;6.37;;;2.83;;
7377;SDS011;3730;50.856;12.776;2023-04-03T06:31:55;7.67;;;2.50;;
7377;SDS011;3730;50.856;12.776;2023-04-03T06:34:21;6.27;;;2.43;;
7377;SDS011;3730;50.856;12.776;2023-04-03T06:36:47;8.33;;;2.87;;
7377;SDS011;3730;50.856;12.776;2023-04-03T06:39:17;9.40;;;2.93;;
7377;SDS011;3730;50.856;12.776;2023-04-03T06:41:50;9.20;;;3.07;;
7377;SDS011;3730;50.856;12.776;2023-04-03T06:44:16;6.43;;;2.83;;
7377;SDS011;3730;50.856;12.776;2023-04-03T06:46:43;6.57;;;2.60;;
7377;SDS011;3730;50.856;12.776;2023-04-03T06:49:10;3.33;;;2.50;;
7377;SDS011;3730;50.856;12.776;2023-04-03T06:51:36;5.73;;;3.00;;
7377;SDS011;3730;50.856;12.776;2023-04-03T06:54:03;8.00;;;2.67;;
7377;SDS011;3730;50.856;12.776;2023-04-03T06:56:29;8.63;;;3.10;;
7377;SDS011;3730;50.856;12.776;2023-04-03T06:58:55;9.30;;;3.03;;
7377;SDS011;3730;50.856;12.776;2023-04-03T07:01:23;6.27;;;3.17;;
7377;SDS011;3730;50.856;12.776;2023-04-03T07:03:50;5.23;;;3.43;;
7377;SDS011;3730;50.856;12.776;2023-04-03T07:06:16;7.23;;;3.00;;
7377;SDS011;3730;50.856;12.776;2023-04-03T07:08:43;9.67;;;3.80;;
7377;SDS011;3730;50.856;12.776;2023-04-03T07:11:10;7.30;;;4.30;;
7377;SDS011;3730;50.856;12.776;2023-04-03T07:13:36;8.33;;;4.20;;
7377;SDS011;3730;50.856;12.776;2023-04-03T07:16:03;11.37;;;3.80;;
7377;SDS011;3730;50.856;12.776;2023-04-03T07:18:31;8.83;;;3.90;;
7377;SDS011;3730;50.856;12.776;2023-04-03T07:20:57;12.83;;;3.63;;
7377;SDS011;3730;50.856;12.776;2023-04-03T07:23:23;5.33;;;3.67;;
7377;SDS011;3730;50.856;12.776;2023-04-03T07:25:50;6.90;;;3.97;;
7377;SDS011;3730;50.856;12.776;2023-04-03T07:28:17;10.93;;;4.10;;
7377;SDS011;3730;50.856;12.776;2023-04-03T07:30:47;8.50;;;3.93;;
7377;SDS011;3730;50.856;12.776;2023-04-03T07:33:14;15.83;;;4.70;;
7377;SDS011;3730;50.856;12.776;2023-04-03T07:35:41;9.33;;;3.80;;
7377;SDS011;3730;50.856;12.776;2023-04-03T07:38:07;9.87;;;3.90;;
7377;SDS011;3730;50.856;12.776;2023-04-03T07:40:33;9.07;;;3.53;;
7377;SDS011;3730;50.856;12.776;2023-04-03T07:43:00;6.90;;;4.70;;
7377;SDS011;3730;50.856;12.776;2023-04-03T07:45:26;6.97;;;4.50;;
7377;SDS011;3730;50.856;12.776;2023-04-03T07:47:52;10.80;;;4.17;;
7377;SDS011;3730;50.856;12.776;2023-04-03T07:50:18;5.80;;;4.60;;
7377;SDS011;3730;50.856;12.776;2023-04-03T07:52:44;9.47;;;4.73;;
7377;SDS011;3730;50.856;12.776;2023-04-03T07:55:11;9.20;;;3.90;;
7377;SDS011;3730;50.856;12.776;2023-04-03T07:57:37;6.63;;;4.00;;
7377;SDS011;3730;50.856;12.776;2023-04-03T08:00:04;7.83;;;4.03;;
7377;SDS011;3730;50.856;12.776;2023-04-03T08:02:30;7.90;;;4.30;;
7377;SDS011;3730;50.856;12.776;2023-04-03T08:04:57;10.40;;;4.50;;
7377;SDS011;3730;50.856;12.776;2023-04-03T08:07:23;6.53;;;4.00;;
7377;SDS011;3730;50.856;12.776;2023-04-03T08:09:49;6.63;;;3.70;;
7377;SDS011;3730;50.856;12.776;2023-04-03T08:12:15;8.13;;;3.40;;
7377;SDS011;3730;50.856;12.776;2023-04-03T08:14:41;4.30;;;3.43;;
7377;SDS011;3730;50.856;12.776;2023-04-03T08:17:08;8.57;;;3.70;;
7377;SDS011;3730;50.856;12.776;2023-04-03T08:19:36;6.57;;;3.40;;
7377;SDS011;3730;50.856;12.776;2023-04-03T08:22:02;7.97;;;3.37;;
7377;SDS011;3730;50.856;12.776;2023-04-03T08:24:29;9.53;;;3.90;;
7377;SDS011;3730;50.856;12.776;2023-04-03T08:26:56;6.13;;;3.20;;
7377;SDS011;3730;50.856;12.776;2023-04-03T08:29:22;4.90;;;3.20;;
7377;SDS011;3730;50.856;12.776;2023-04-03T08:31:48;4.70;;;3.27;;
7377;SDS011;3730;50.856;12.776;2023-04-03T08:34:15;6.07;;;3.40;;
7377;SDS011;3730;50.856;12.776;2023-04-03T08:36:41;5.03;;;3.67;;
7377;SDS011;3730;50.856;12.776;2023-04-03T08:39:07;9.90;;;3.80;;
7377;SDS011;3730;50.856;12.776;2023-04-03T08:44:12;13.50;;;3.50;;
7377;SDS011;3730;50.856;12.776;2023-04-03T08:49:44;5.37;;;2.70;;
7377;SDS011;3730;50.856;12.776;2023-04-03T08:52:16;5.47;;;2.57;;
7377;SDS011;3730;50.856;12.776;2023-04-03T08:54:53;6.73;;;2.80;;
7377;SDS011;3730;50.856;12.776;2023-04-03T08:57:41;8.50;;;3.63;;
7377;SDS011;3730;50.856;12.776;2023-04-03T09:02:44;5.57;;;2.73;;
7377;SDS011;3730;50.856;12.776;2023-04-03T09:05:13;7.33;;;2.90;;
7377;SDS011;3730;50.856;12.776;2023-04-03T09:07:45;10.40;;;3.03;;
7377;SDS011;3730;50.856;12.776;2023-04-03T09:10:28;7.67;;;3.27;;
7377;SDS011;3730;50.856;12.776;2023-04-03T09:12:59;6.90;;;3.00;;
7377;SDS011;3730;50.856;12.776;2023-04-03T09:15:32;4.93;;;3.00;;
7377;SDS011;3730;50.856;12.776;2023-04-03T09:18:03;8.07;;;2.80;;
7377;SDS011;3730;50.856;12.776;2023-04-03T09:22:56;8.90;;;3.30;;
7377;SDS011;3730;50.856;12.776;2023-04-03T09:25:23;4.17;;;2.73;;
7377;SDS011;3730;50.856;12.776;2023-04-03T09:27:54;7.03;;;3.40;;
7377;SDS011;3730;50.856;12.776;2023-04-03T09:30:22;7.57;;;3.10;;
7377;SDS011;3730;50.856;12.776;2023-04-03T09:32:53;4.90;;;2.93;;
7377;SDS011;3730;50.856;12.776;2023-04-03T09:35:21;9.50;;;3.03;;
7377;SDS011;3730;50.856;12.776;2023-04-03T09:37:59;4.83;;;2.80;;
7377;SDS011;3730;50.856;12.776;2023-04-03T09:41:12;11.20;;;3.03;;
7377;SDS011;3730;50.856;12.776;2023-04-03T09:43:42;5.47;;;2.50;;
7377;SDS011;3730;50.856;12.776;2023-04-03T09:46:33;9.67;;;2.97;;
7377;SDS011;3730;50.856;12.776;2023-04-03T09:49:04;6.70;;;2.33;;
7377;SDS011;3730;50.856;12.776;2023-04-03T09:51:30;3.00;;;2.03;;
7377;SDS011;3730;50.856;12.776;2023-04-03T09:53:57;20.50;;;3.00;;
7377;SDS011;3730;50.856;12.776;2023-04-03T09:56:26;19.87;;;3.07;;
7377;SDS011;3730;50.856;12.776;2023-04-03T10:01:32;4.53;;;1.90;;
7377;SDS011;3730;50.856;12.776;2023-04-03T10:04:06;6.07;;;2.67;;
7377;SDS011;3730;50.856;12.776;2023-04-03T10:06:33;4.57;;;2.20;;
7377;SDS011;3730;50.856;12.776;2023-04-03T10:09:10;3.67;;;1.83;;
7377;SDS011;3730;50.856;12.776;2023-04-03T10:11:56;4.80;;;1.93;;
7377;SDS011;3730;50.856;12.776;2023-04-03T10:14:23;6.00;;;2.37;;
7377;SDS011;3730;50.856;12.776;2023-04-03T10:17:01;2.63;;;2.20;;
7377;SDS011;3730;50.856;12.776;2023-04-03T10:19:45;2.90;;;2.20;;
7377;SDS011;3730;50.856;12.776;2023-04-03T10:27:10;6.90;;;2.40;;
7377;SDS011;3730;50.856;12.776;2023-04-03T10:41:23;6.60;;;2.03;;
7377;SDS011;3730;50.856;12.776;2023-04-03T10:44:15;12.80;;;2.53;;
7377;SDS011;3730;50.856;12.776;2023-04-03T10:47:05;19.13;;;2.87;;
7377;SDS011;3730;50.856;12.776;2023-04-03T10:49:58;5.87;;;1.83;;
7377;SDS011;3730;50.856;12.776;2023-04-03T10:55:50;6.90;;;2.10;;
7377;SDS011;3730;50.856;12.776;2023-04-03T10:58:38;15.20;;;2.27;;
7377;SDS011;3730;50.856;12.776;2023-04-03T11:01:11;6.60;;;1.60;;
7377;SDS011;3730;50.856;12.776;2023-04-03T11:03:43;5.10;;;2.10;;
7377;SDS011;3730;50.856;12.776;2023-04-03T11:06:12;2.60;;;1.90;;
7377;SDS011;3730;50.856;12.776;2023-04-03T11:08:45;4.40;;;1.90;;
7377;SDS011;3730;50.856;12.776;2023-04-03T11:11:32;5.13;;;1.67;;
7377;SDS011;3730;50.856;12.776;2023-04-03T11:14:05;8.83;;;2.23;;
7377;SDS011;3730;50.856;12.776;2023-04-03T11:16:36;14.97;;;2.87;;
7377;SDS011;3730;50.856;12.776;2023-04-03T11:19:17;3.67;;;1.97;;
7377;SDS011;3730;50.856;12.776;2023-04-03T11:24:24;3.80;;;1.67;;
7377;SDS011;3730;50.856;12.776;2023-04-03T11:26:51;3.20;;;1.73;;
7377;SDS011;3730;50.856;12.776;2023-04-03T11:29:20;5.17;;;1.50;;
7377;SDS011;3730;50.856;12.776;2023-04-03T11:34:34;5.50;;;2.67;;
7377;SDS011;3730;50.856;12.776;2023-04-03T11:37:05;2.23;;;1.30;;
7377;SDS011;3730;50.856;12.776;2023-04-03T11:39:32;2.60;;;1.33;;
7377;SDS011;3730;50.856;12.776;2023-04-03T11:42:15;4.23;;;1.70;;
7377;SDS011;3730;50.856;12.776;2023-04-03T11:44:41;4.77;;;1.70;;
7377;SDS011;3730;50.856;12.776;2023-04-03T11:47:08;1.73;;;1.40;;
7377;SDS011;3730;50.856;12.776;2023-04-03T12:02:56;4.03;;;1.40;;
7377;SDS011;3730;50.856;12.776;2023-04-03T12:05:27;2.87;;;1.10;;
7377;SDS011;3730;50.856;12.776;2023-04-03T12:11:13;2.60;;;1.40;;
7377;SDS011;3730;50.856;12.776;2023-04-03T12:13:32;2.63;;;1.40;;
7377;SDS011;3730;50.856;12.776;2023-04-03T12:15:57;2.10;;;1.20;;
7377;SDS011;3730;50.856;12.776;2023-04-03T12:21:06;3.10;;;1.30;;
7377;SDS011;3730;50.856;12.776;2023-04-03T12:23:33;3.77;;;1.30;;
7377;SDS011;3730;50.856;12.776;2023-04-03T12:26:03;2.40;;;1.93;;
7377;SDS011;3730;50.856;12.776;2023-04-03T12:28:30;3.10;;;1.50;;
7377;SDS011;3730;50.856;12.776;2023-04-03T12:31:01;4.87;;;1.47;;
7377;SDS011;3730;50.856;12.776;2023-04-03T12:33:31;2.53;;;1.33;;
7377;SDS011;3730;50.856;12.776;2023-04-03T12:36:05;3.57;;;1.60;;
7377;SDS011;3730;50.856;12.776;2023-04-03T12:38:38;3.17;;;1.50;;
7377;SDS011;3730;50.856;12.776;2023-04-03T12:41:23;3.10;;;1.50;;
7377;SDS011;3730;50.856;12.776;2023-04-03T12:43:57;1.53;;;1.17;;
7377;SDS011;3730;50.856;12.776;2023-04-03T12:46:36;2.57;;;1.20;;
7377;SDS011;3730;50.856;12.776;2023-04-03T12:49:10;2.90;;;1.37;;
7377;SDS011;3730;50.856;12.776;2023-04-03T12:51:42;4.00;;;2.53;;
7377;SDS011;3730;50.856;12.776;2023-04-03T12:54:27;7.87;;;1.60;;
7377;SDS011;3730;50.856;12.776;2023-04-03T12:57:28;4.53;;;1.40;;
7377;SDS011;3730;50.856;12.776;2023-04-03T12:59:47;7.30;;;1.43;;
7377;SDS011;3730;50.856;12.776;2023-04-03T13:02:19;2.43;;;1.23;;
7377;SDS011;3730;50.856;12.776;2023-04-03T13:04:46;4.83;;;1.33;;
7377;SDS011;3730;50.856;12.776;2023-04-03T13:07:22;3.10;;;1.63;;
7377;SDS011;3730;50.856;12.776;2023-04-03T13:15:13;3.53;;;1.30;;
7377;SDS011;3730;50.856;12.776;2023-04-03T13:17:41;1.23;;;1.10;;
7377;SDS011;3730;50.856;12.776;2023-04-03T13:20:26;3.20;;;1.20;;
7377;SDS011;3730;50.856;12.776;2023-04-03T13:22:54;2.40;;;1.60;;
7377;SDS011;3730;50.856;12.776;2023-04-03T13:25:22;4.67;;;1.70;;
7377;SDS011;3730;50.856;12.776;2023-04-03T13:27:48;4.10;;;1.97;;
7377;SDS011;3730;50.856;12.776;2023-04-03T13:30:17;4.53;;;1.80;;
7377;SDS011;3730;50.856;12.776;2023-04-03T13:32:45;3.17;;;1.67;;
7377;SDS011;3730;50.856;12.776;2023-04-03T13:35:25;2.47;;;1.43;;
7377;SDS011;3730;50.856;12.776;2023-04-03T13:37:58;6.70;;;2.23;;
7377;SDS011;3730;50.856;12.776;2023-04-03T13:40:25;1.83;;;1.53;;
7377;SDS011;3730;50.856;12.776;2023-04-03T13:43:02;2.43;;;1.50;;
7377;SDS011;3730;50.856;12.776;2023-04-03T13:45:28;6.90;;;1.80;;
7377;SDS011;3730;50.856;12.776;2023-04-03T13:50:54;2.20;;;1.40;;
7377;SDS011;3730;50.856;12.776;2023-04-03T13:53:21;2.37;;;1.43;;
7377;SDS011;3730;50.856;12.776;2023-04-03T13:55:58;3.67;;;1.87;;
7377;SDS011;3730;50.856;12.776;2023-04-03T13:58:25;1.83;;;1.23;;
7377;SDS011;3730;50.856;12.776;2023-04-03T14:03:44;7.13;;;1.73;;
7377;SDS011;3730;50.856;12.776;2023-04-03T14:06:12;12.03;;;1.73;;
7377;SDS011;3730;50.856;12.776;2023-04-03T14:08:38;4.90;;;1.80;;
7377;SDS011;3730;50.856;12.776;2023-04-03T14:11:05;4.90;;;1.87;;
7377;SDS011;3730;50.856;12.776;2023-04-03T14:13:31;4.50;;;2.13;;
7377;SDS011;3730;50.856;12.776;2023-04-03T14:15:57;3.27;;;1.60;;
7377;SDS011;3730;50.856;12.776;2023-04-03T14:18:23;3.27;;;1.47;;
7377;SDS011;3730;50.856;12.776;2023-04-03T14:20:50;3.47;;;1.30;;
7377;SDS011;3730;50.856;12.776;2023-04-03T14:23:16;4.10;;;1.63;;
7377;SDS011;3730;50.856;12.776;2023-04-03T14:25:42;15.07;;;2.30;;
7377;SDS011;3730;50.856;12.776;2023-04-03T14:28:16;3.97;;;2.20;;
7377;SDS011;3730;50.856;12.776;2023-04-03T14:30:42;2.57;;;1.60;;
7377;SDS011;3730;50.856;12.776;2023-04-03T14:33:10;2.03;;;1.47;;
7377;SDS011;3730;50.856;12.776;2023-04-03T14:35:38;2.97;;;1.43;;
7377;SDS011;3730;50.856;12.776;2023-04-03T14:38:05;4.40;;;1.60;;
7377;SDS011;3730;50.856;12.776;2023-04-03T14:40:40;4.37;;;1.53;;
7377;SDS011;3730;50.856;12.776;2023-04-03T14:43:09;4.80;;;1.97;;
7377;SDS011;3730;50.856;12.776;2023-04-03T14:45:35;4.50;;;1.80;;
7377;SDS011;3730;50.856;12.776;2023-04-03T14:48:02;1.70;;;1.20;;
7377;SDS011;3730;50.856;12.776;2023-04-03T14:50:28;3.53;;;1.50;;
7377;SDS011;3730;50.856;12.776;2023-04-03T14:52:56;1.93;;;1.50;;
7377;SDS011;3730;50.856;12.776;2023-04-03T14:55:23;4.60;;;1.70;;
7377;SDS011;3730;50.856;12.776;2023-04-03T14:57:49;2.60;;;1.63;;
7377;SDS011;3730;50.856;12.776;2023-04-03T15:00:16;2.57;;;1.43;;
7377;SDS011;3730;50.856;12.776;2023-04-03T15:02:43;1.90;;;1.40;;
7377;SDS011;3730;50.856;12.776;2023-04-03T15:05:09;2.53;;;1.50;;
7377;SDS011;3730;50.856;12.776;2023-04-03T15:07:40;2.97;;;1.50;;
7377;SDS011;3730;50.856;12.776;2023-04-03T15:10:20;1.90;;;1.60;;
7377;SDS011;3730;50.856;12.776;2023-04-03T15:12:47;3.50;;;1.90;;
7377;SDS011;3730;50.856;12.776;2023-04-03T15:15:14;4.13;;;1.83;;
7377;SDS011;3730;50.856;12.776;2023-04-03T15:17:40;4.13;;;1.60;;
7377;SDS011;3730;50.856;12.776;2023-04-03T15:20:14;3.57;;;1.60;;
7377;SDS011;3730;50.856;12.776;2023-04-03T15:22:40;5.37;;;1.60;;
7377;SDS011;3730;50.856;12.776;2023-04-03T15:25:06;3.97;;;1.70;;
7377;SDS011;3730;50.856;12.776;2023-04-03T15:27:33;4.93;;;2.00;;
7377;SDS011;3730;50.856;12.776;2023-04-03T15:29:59;5.20;;;2.60;;
7377;SDS011;3730;50.856;12.776;2023-04-03T15:32:25;5.30;;;1.70;;
7377;SDS011;3730;50.856;12.776;2023-04-03T15:34:51;4.87;;;1.90;;
7377;SDS011;3730;50.856;12.776;2023-04-03T15:37:17;2.63;;;1.90;;
7377;SDS011;3730;50.856;12.776;2023-04-03T15:39:43;2.80;;;1.53;;
7377;SDS011;3730;50.856;12.776;2023-04-03T15:42:09;3.27;;;1.43;;
7377;SDS011;3730;50.856;12.776;2023-04-03T15:44:35;4.03;;;1.90;;
7377;SDS011;3730;50.856;12.776;2023-04-03T15:47:01;4.23;;;1.80;;
7377;SDS011;3730;50.856;12.776;2023-04-03T15:49:27;3.80;;;1.50;;
7377;SDS011;3730;50.856;12.776;2023-04-03T15:51:54;4.43;;;1.83;;
7377;SDS011;3730;50.856;12.776;2023-04-03T15:54:20;2.53;;;1.73;;
7377;SDS011;3730;50.856;12.776;2023-04-03T15:56:45;3.93;;;1.67;;
7377;SDS011;3730;50.856;12.776;2023-04-03T15:59:11;3.90;;;1.60;;
7377;SDS011;3730;50.856;12.776;2023-04-03T16:01:37;4.13;;;1.47;;
7377;SDS011;3730;50.856;12.776;2023-04-03T16:04:04;2.97;;;1.80;;
7377;SDS011;3730;50.856;12.776;2023-04-03T16:06:31;2.50;;;1.60;;
7377;SDS011;3730;50.856;12.776;2023-04-03T16:08:58;2.23;;;1.60;;
7377;SDS011;3730;50.856;12.776;2023-04-03T16:11:25;3.47;;;1.87;;
7377;SDS011;3730;50.856;12.776;2023-04-03T16:13:52;7.23;;;1.67;;
7377;SDS011;3730;50.856;12.776;2023-04-03T16:16:18;2.90;;;1.20;;
7377;SDS011;3730;50.856;12.776;2023-04-03T16:18:45;4.07;;;1.60;;
7377;SDS011;3730;50.856;12.776;2023-04-03T16:21:12;2.50;;;1.40;;
7377;SDS011;3730;50.856;12.776;2023-04-03T16:23:38;4.77;;;2.30;;